sensor_id;sensor_type;location;lat;lon;timestamp;P1;durP1;ratioP1;P2;durP2;ratioP2
65879;SDS011;52661;51.364;6.054;2024-02-16T00:00:43;1.92;;;0.55;;
65879;SDS011;52661;51.364;6.054;2024-02-16T00:03:09;1.95;;;0.52;;
65879;SDS011;52661;51.364;6.054;2024-02-16T00:05:35;1.30;;;0.50;;
65879;SDS011;52661;51.364;6.054;2024-02-16T00:08:01;1.35;;;0.50;;
65879;SDS011;52661;51.364;6.054;2024-02-16T00:10:28;0.93;;;0.25;;
65879;SDS011;52661;51.364;6.054;2024-02-16T00:12:53;1.10;;;0.52;;
65879;SDS011;52661;51.364;6.054;2024-02-16T00:15:19;1.70;;;0.40;;
65879;SDS011;52661;51.364;6.054;2024-02-16T00:17:44;2.28;;;0.80;;
65879;SDS011;52661;51.364;6.054;2024-02-16T00:20:09;1.60;;;0.60;;
65879;SDS011;52661;51.364;6.054;2024-02-16T00:22:37;2.42;;;0.45;;
65879;SDS011;52661;51.364;6.054;2024-02-16T00:25:03;1.40;;;0.17;;
65879;SDS011;52661;51.364;6.054;2024-02-16T00:27:28;1.70;;;0.45;;
65879;SDS011;52661;51.364;6.054;2024-02-16T00:29:54;3.05;;;0.57;;
65879;SDS011;52661;51.364;6.054;2024-02-16T00:32:19;1.23;;;0.32;;
65879;SDS011;52661;51.364;6.054;2024-02-16T00:34:45;2.20;;;0.30;;
65879;SDS011;52661;51.364;6.054;2024-02-16T00:37:10;2.63;;;0.70;;
65879;SDS011;52661;51.364;6.054;2024-02-16T00:39:38;2.25;;;0.55;;
65879;SDS011;52661;51.364;6.054;2024-02-16T00:42:07;4.03;;;0.43;;
65879;SDS011;52661;51.364;6.054;2024-02-16T00:44:33;2.63;;;0.47;;
65879;SDS011;52661;51.364;6.054;2024-02-16T00:46:58;2.50;;;0.50;;
65879;SDS011;52661;51.364;6.054;2024-02-16T00:49:23;2.53;;;0.73;;
65879;SDS011;52661;51.364;6.054;2024-02-16T00:51:49;2.88;;;0.85;;
65879;SDS011;52661;51.364;6.054;2024-02-16T00:54:15;1.73;;;0.50;;
65879;SDS011;52661;51.364;6.054;2024-02-16T00:56:42;2.33;;;0.80;;
65879;SDS011;52661;51.364;6.054;2024-02-16T00:59:07;2.67;;;0.32;;
65879;SDS011;52661;51.364;6.054;2024-02-16T01:01:34;2.53;;;0.52;;
65879;SDS011;52661;51.364;6.054;2024-02-16T01:04:00;1.70;;;0.40;;
65879;SDS011;52661;51.364;6.054;2024-02-16T01:06:26;1.90;;;0.88;;
65879;SDS011;52661;51.364;6.054;2024-02-16T01:08:51;2.53;;;0.37;;
65879;SDS011;52661;51.364;6.054;2024-02-16T01:11:16;2.40;;;0.60;;
65879;SDS011;52661;51.364;6.054;2024-02-16T01:13:42;2.65;;;0.63;;
65879;SDS011;52661;51.364;6.054;2024-02-16T01:16:08;1.98;;;0.70;;
65879;SDS011;52661;51.364;6.054;2024-02-16T01:18:34;1.67;;;0.57;;
65879;SDS011;52661;51.364;6.054;2024-02-16T01:21:01;2.38;;;0.63;;
65879;SDS011;52661;51.364;6.054;2024-02-16T01:23:28;1.92;;;0.75;;
65879;SDS011;52661;51.364;6.054;2024-02-16T01:25:53;1.47;;;0.30;;
65879;SDS011;52661;51.364;6.054;2024-02-16T01:28:18;3.00;;;0.47;;
65879;SDS011;52661;51.364;6.054;2024-02-16T01:30:44;4.53;;;0.50;;
65879;SDS011;52661;51.364;6.054;2024-02-16T01:33:09;2.30;;;0.52;;
65879;SDS011;52661;51.364;6.054;2024-02-16T01:35:35;4.18;;;0.57;;
65879;SDS011;52661;51.364;6.054;2024-02-16T01:38:01;2.38;;;0.43;;
65879;SDS011;52661;51.364;6.054;2024-02-16T01:40:26;3.05;;;0.45;;
65879;SDS011;52661;51.364;6.054;2024-02-16T01:42:52;2.22;;;0.43;;
65879;SDS011;52661;51.364;6.054;2024-02-16T01:45:18;2.58;;;0.60;;
65879;SDS011;52661;51.364;6.054;2024-02-16T01:47:43;1.10;;;0.40;;
65879;SDS011;52661;51.364;6.054;2024-02-16T01:50:11;1.52;;;0.63;;
65879;SDS011;52661;51.364;6.054;2024-02-16T01:52:37;2.50;;;0.75;;
65879;SDS011;52661;51.364;6.054;2024-02-16T01:55:06;0.82;;;0.52;;
65879;SDS011;52661;51.364;6.054;2024-02-16T01:57:35;1.35;;;0.73;;
65879;SDS011;52661;51.364;6.054;2024-02-16T02:00:03;1.98;;;0.50;;
65879;SDS011;52661;51.364;6.054;2024-02-16T02:02:32;2.22;;;0.55;;
65879;SDS011;52661;51.364;6.054;2024-02-16T02:04:58;1.30;;;0.73;;
65879;SDS011;52661;51.364;6.054;2024-02-16T02:07:25;3.03;;;0.50;;
65879;SDS011;52661;51.364;6.054;2024-02-16T02:09:54;2.10;;;0.40;;
65879;SDS011;52661;51.364;6.054;2024-02-16T02:12:19;1.85;;;0.32;;
65879;SDS011;52661;51.364;6.054;2024-02-16T02:14:44;1.35;;;0.43;;
65879;SDS011;52661;51.364;6.054;2024-02-16T02:17:11;2.20;;;0.93;;
65879;SDS011;52661;51.364;6.054;2024-02-16T02:19:37;2.00;;;0.22;;
65879;SDS011;52661;51.364;6.054;2024-02-16T02:22:02;1.40;;;0.43;;
65879;SDS011;52661;51.364;6.054;2024-02-16T02:24:27;1.90;;;0.43;;
65879;SDS011;52661;51.364;6.054;2024-02-16T02:26:53;1.37;;;0.50;;
65879;SDS011;52661;51.364;6.054;2024-02-16T02:29:18;1.73;;;0.57;;
65879;SDS011;52661;51.364;6.054;2024-02-16T02:31:43;2.33;;;0.50;;
65879;SDS011;52661;51.364;6.054;2024-02-16T02:34:08;2.73;;;0.73;;
65879;SDS011;52661;51.364;6.054;2024-02-16T02:36:35;2.42;;;0.60;;
65879;SDS011;52661;51.364;6.054;2024-02-16T02:39:00;3.50;;;0.73;;
65879;SDS011;52661;51.364;6.054;2024-02-16T02:41:26;1.48;;;0.30;;
65879;SDS011;52661;51.364;6.054;2024-02-16T02:43:52;1.50;;;0.43;;
65879;SDS011;52661;51.364;6.054;2024-02-16T02:46:18;2.13;;;0.50;;
65879;SDS011;52661;51.364;6.054;2024-02-16T02:48:44;2.33;;;0.43;;
65879;SDS011;52661;51.364;6.054;2024-02-16T02:51:09;1.23;;;0.43;;
65879;SDS011;52661;51.364;6.054;2024-02-16T02:53:35;1.90;;;0.47;;
65879;SDS011;52661;51.364;6.054;2024-02-16T02:56:01;2.28;;;0.35;;
65879;SDS011;52661;51.364;6.054;2024-02-16T02:58:26;1.23;;;0.38;;
65879;SDS011;52661;51.364;6.054;2024-02-16T03:00:51;2.80;;;1.13;;
65879;SDS011;52661;51.364;6.054;2024-02-16T03:03:17;2.47;;;0.73;;
65879;SDS011;52661;51.364;6.054;2024-02-16T03:05:42;4.10;;;0.83;;
65879;SDS011;52661;51.364;6.054;2024-02-16T03:08:08;2.45;;;0.63;;
65879;SDS011;52661;51.364;6.054;2024-02-16T03:10:34;1.30;;;0.30;;
65879;SDS011;52661;51.364;6.054;2024-02-16T03:13:01;1.58;;;0.45;;
65879;SDS011;52661;51.364;6.054;2024-02-16T03:15:27;1.40;;;0.43;;
65879;SDS011;52661;51.364;6.054;2024-02-16T03:17:54;2.80;;;0.73;;
65879;SDS011;52661;51.364;6.054;2024-02-16T03:20:19;1.35;;;0.32;;
65879;SDS011;52661;51.364;6.054;2024-02-16T03:22:45;2.42;;;1.15;;
65879;SDS011;52661;51.364;6.054;2024-02-16T03:25:10;2.63;;;0.43;;
65879;SDS011;52661;51.364;6.054;2024-02-16T03:27:35;2.07;;;0.33;;
65879;SDS011;52661;51.364;6.054;2024-02-16T03:30:02;1.05;;;0.40;;
65879;SDS011;52661;51.364;6.054;2024-02-16T03:32:27;2.00;;;0.95;;
65879;SDS011;52661;51.364;6.054;2024-02-16T03:34:53;1.67;;;0.53;;
65879;SDS011;52661;51.364;6.054;2024-02-16T03:37:18;2.17;;;0.40;;
65879;SDS011;52661;51.364;6.054;2024-02-16T03:39:43;2.40;;;0.70;;
65879;SDS011;52661;51.364;6.054;2024-02-16T03:42:09;1.27;;;0.63;;
65879;SDS011;52661;51.364;6.054;2024-02-16T03:44:34;2.78;;;0.52;;
65879;SDS011;52661;51.364;6.054;2024-02-16T03:47:00;1.80;;;0.40;;
65879;SDS011;52661;51.364;6.054;2024-02-16T03:49:25;1.40;;;0.45;;
65879;SDS011;52661;51.364;6.054;2024-02-16T03:51:53;4.22;;;0.80;;
65879;SDS011;52661;51.364;6.054;2024-02-16T03:54:18;2.22;;;0.43;;
65879;SDS011;52661;51.364;6.054;2024-02-16T03:56:43;1.67;;;0.50;;
65879;SDS011;52661;51.364;6.054;2024-02-16T03:59:10;1.67;;;0.50;;
65879;SDS011;52661;51.364;6.054;2024-02-16T04:01:35;1.50;;;0.40;;
65879;SDS011;52661;51.364;6.054;2024-02-16T04:04:01;2.20;;;0.45;;
65879;SDS011;52661;51.364;6.054;2024-02-16T04:06:28;1.20;;;0.52;;
65879;SDS011;52661;51.364;6.054;2024-02-16T04:08:53;3.67;;;0.52;;
65879;SDS011;52661;51.364;6.054;2024-02-16T04:11:19;2.33;;;0.87;;
65879;SDS011;52661;51.364;6.054;2024-02-16T04:13:44;0.82;;;0.32;;
65879;SDS011;52661;51.364;6.054;2024-02-16T04:16:09;1.27;;;0.27;;
65879;SDS011;52661;51.364;6.054;2024-02-16T04:18:34;1.20;;;0.27;;
65879;SDS011;52661;51.364;6.054;2024-02-16T04:21:00;3.03;;;0.87;;
65879;SDS011;52661;51.364;6.054;2024-02-16T04:23:25;1.85;;;0.68;;
65879;SDS011;52661;51.364;6.054;2024-02-16T04:25:50;1.40;;;0.50;;
65879;SDS011;52661;51.364;6.054;2024-02-16T04:28:16;2.80;;;0.80;;
65879;SDS011;52661;51.364;6.054;2024-02-16T04:30:43;1.83;;;0.45;;
65879;SDS011;52661;51.364;6.054;2024-02-16T04:33:09;1.73;;;0.65;;
65879;SDS011;52661;51.364;6.054;2024-02-16T04:35:34;1.40;;;0.50;;
65879;SDS011;52661;51.364;6.054;2024-02-16T04:37:59;1.38;;;0.70;;
65879;SDS011;52661;51.364;6.054;2024-02-16T04:40:25;1.40;;;0.32;;
65879;SDS011;52661;51.364;6.054;2024-02-16T04:42:51;3.05;;;0.68;;
65879;SDS011;52661;51.364;6.054;2024-02-16T04:45:17;1.75;;;0.73;;
65879;SDS011;52661;51.364;6.054;2024-02-16T04:47:42;2.05;;;0.55;;
65879;SDS011;52661;51.364;6.054;2024-02-16T04:50:08;2.53;;;0.45;;
65879;SDS011;52661;51.364;6.054;2024-02-16T04:52:37;1.88;;;0.88;;
65879;SDS011;52661;51.364;6.054;2024-02-16T04:55:04;3.80;;;0.60;;
65879;SDS011;52661;51.364;6.054;2024-02-16T04:57:30;1.95;;;0.52;;
65879;SDS011;52661;51.364;6.054;2024-02-16T04:59:56;1.10;;;0.57;;
65879;SDS011;52661;51.364;6.054;2024-02-16T05:02:21;1.92;;;0.63;;
65879;SDS011;52661;51.364;6.054;2024-02-16T05:04:47;2.40;;;0.90;;
65879;SDS011;52661;51.364;6.054;2024-02-16T05:07:12;2.93;;;0.53;;
65879;SDS011;52661;51.364;6.054;2024-02-16T05:09:37;2.23;;;0.40;;
65879;SDS011;52661;51.364;6.054;2024-02-16T05:12:04;2.08;;;0.52;;
65879;SDS011;52661;51.364;6.054;2024-02-16T05:14:30;2.17;;;0.52;;
65879;SDS011;52661;51.364;6.054;2024-02-16T05:16:55;1.58;;;0.70;;
65879;SDS011;52661;51.364;6.054;2024-02-16T05:19:21;2.13;;;0.77;;
65879;SDS011;52661;51.364;6.054;2024-02-16T05:21:46;1.85;;;0.80;;
65879;SDS011;52661;51.364;6.054;2024-02-16T05:24:11;2.13;;;0.60;;
65879;SDS011;52661;51.364;6.054;2024-02-16T05:26:37;1.57;;;0.70;;
65879;SDS011;52661;51.364;6.054;2024-02-16T05:29:02;1.33;;;0.52;;
65879;SDS011;52661;51.364;6.054;2024-02-16T05:31:28;2.23;;;0.50;;
65879;SDS011;52661;51.364;6.054;2024-02-16T05:33:53;1.20;;;0.50;;
65879;SDS011;52661;51.364;6.054;2024-02-16T05:36:18;1.50;;;0.50;;
65879;SDS011;52661;51.364;6.054;2024-02-16T05:38:46;2.42;;;0.77;;
65879;SDS011;52661;51.364;6.054;2024-02-16T05:41:11;1.75;;;0.35;;
65879;SDS011;52661;51.364;6.054;2024-02-16T05:43:37;1.98;;;0.52;;
65879;SDS011;52661;51.364;6.054;2024-02-16T05:46:05;1.55;;;0.70;;
65879;SDS011;52661;51.364;6.054;2024-02-16T05:48:33;2.40;;;0.50;;
65879;SDS011;52661;51.364;6.054;2024-02-16T05:51:02;2.00;;;1.05;;
65879;SDS011;52661;51.364;6.054;2024-02-16T05:53:30;3.60;;;0.93;;
65879;SDS011;52661;51.364;6.054;2024-02-16T05:55:56;3.08;;;0.57;;
65879;SDS011;52661;51.364;6.054;2024-02-16T05:58:21;1.70;;;0.50;;
65879;SDS011;52661;51.364;6.054;2024-02-16T06:00:48;1.83;;;0.70;;
65879;SDS011;52661;51.364;6.054;2024-02-16T06:03:13;3.72;;;0.85;;
65879;SDS011;52661;51.364;6.054;2024-02-16T06:05:39;1.55;;;0.73;;
65879;SDS011;52661;51.364;6.054;2024-02-16T06:08:06;1.63;;;0.63;;
65879;SDS011;52661;51.364;6.054;2024-02-16T06:10:32;1.50;;;0.63;;
65879;SDS011;52661;51.364;6.054;2024-02-16T06:12:57;2.75;;;0.60;;
65879;SDS011;52661;51.364;6.054;2024-02-16T06:15:23;3.50;;;0.40;;
65879;SDS011;52661;51.364;6.054;2024-02-16T06:17:48;2.83;;;0.73;;
65879;SDS011;52661;51.364;6.054;2024-02-16T06:20:15;1.55;;;0.80;;
65879;SDS011;52661;51.364;6.054;2024-02-16T06:22:41;3.20;;;0.75;;
65879;SDS011;52661;51.364;6.054;2024-02-16T06:25:07;3.53;;;0.88;;
65879;SDS011;52661;51.364;6.054;2024-02-16T06:27:32;2.70;;;0.95;;
65879;SDS011;52661;51.364;6.054;2024-02-16T06:29:58;2.72;;;0.88;;
65879;SDS011;52661;51.364;6.054;2024-02-16T06:32:23;2.60;;;0.67;;
65879;SDS011;52661;51.364;6.054;2024-02-16T06:34:49;2.03;;;0.90;;
65879;SDS011;52661;51.364;6.054;2024-02-16T06:37:14;1.87;;;0.43;;
65879;SDS011;52661;51.364;6.054;2024-02-16T06:39:40;2.42;;;0.80;;
65879;SDS011;52661;51.364;6.054;2024-02-16T06:42:05;2.78;;;1.00;;
65879;SDS011;52661;51.364;6.054;2024-02-16T06:44:30;2.20;;;0.70;;
65879;SDS011;52661;51.364;6.054;2024-02-16T06:46:56;3.40;;;0.73;;
65879;SDS011;52661;51.364;6.054;2024-02-16T06:49:21;3.17;;;2.13;;
65879;SDS011;52661;51.364;6.054;2024-02-16T06:51:47;2.63;;;0.47;;
65879;SDS011;52661;51.364;6.054;2024-02-16T06:54:12;3.78;;;0.95;;
65879;SDS011;52661;51.364;6.054;2024-02-16T06:56:37;2.63;;;0.90;;
65879;SDS011;52661;51.364;6.054;2024-02-16T06:59:03;4.15;;;0.70;;
65879;SDS011;52661;51.364;6.054;2024-02-16T07:01:28;1.83;;;0.40;;
65879;SDS011;52661;51.364;6.054;2024-02-16T07:03:54;4.07;;;0.60;;
65879;SDS011;52661;51.364;6.054;2024-02-16T07:06:19;2.10;;;0.75;;
65879;SDS011;52661;51.364;6.054;2024-02-16T07:08:45;2.30;;;0.70;;
65879;SDS011;52661;51.364;6.054;2024-02-16T07:11:10;2.30;;;0.75;;
65879;SDS011;52661;51.364;6.054;2024-02-16T07:13:39;2.05;;;0.47;;
65879;SDS011;52661;51.364;6.054;2024-02-16T07:16:05;2.38;;;0.65;;
65879;SDS011;52661;51.364;6.054;2024-02-16T07:18:34;1.58;;;0.57;;
65879;SDS011;52661;51.364;6.054;2024-02-16T07:21:00;2.58;;;0.55;;
65879;SDS011;52661;51.364;6.054;2024-02-16T07:23:26;2.97;;;0.70;;
65879;SDS011;52661;51.364;6.054;2024-02-16T07:25:51;4.32;;;0.60;;
65879;SDS011;52661;51.364;6.054;2024-02-16T07:28:21;1.75;;;0.52;;
65879;SDS011;52661;51.364;6.054;2024-02-16T07:30:46;1.90;;;0.73;;
65879;SDS011;52661;51.364;6.054;2024-02-16T07:33:12;1.77;;;0.98;;
65879;SDS011;52661;51.364;6.054;2024-02-16T07:35:37;2.17;;;0.40;;
65879;SDS011;52661;51.364;6.054;2024-02-16T07:38:03;4.32;;;0.88;;
65879;SDS011;52661;51.364;6.054;2024-02-16T07:40:29;4.05;;;0.50;;
65879;SDS011;52661;51.364;6.054;2024-02-16T07:42:55;2.05;;;0.52;;
65879;SDS011;52661;51.364;6.054;2024-02-16T07:45:21;3.45;;;0.98;;
65879;SDS011;52661;51.364;6.054;2024-02-16T07:47:47;3.13;;;0.73;;
65879;SDS011;52661;51.364;6.054;2024-02-16T07:50:12;1.40;;;0.65;;
65879;SDS011;52661;51.364;6.054;2024-02-16T07:52:38;3.63;;;1.38;;
65879;SDS011;52661;51.364;6.054;2024-02-16T07:55:05;1.67;;;0.73;;
65879;SDS011;52661;51.364;6.054;2024-02-16T07:57:31;1.17;;;0.63;;
65879;SDS011;52661;51.364;6.054;2024-02-16T07:59:56;1.77;;;0.70;;
65879;SDS011;52661;51.364;6.054;2024-02-16T08:02:22;2.08;;;0.57;;
65879;SDS011;52661;51.364;6.054;2024-02-16T08:04:47;1.63;;;0.80;;
65879;SDS011;52661;51.364;6.054;2024-02-16T08:07:13;3.45;;;1.10;;
65879;SDS011;52661;51.364;6.054;2024-02-16T08:09:39;4.78;;;0.98;;
65879;SDS011;52661;51.364;6.054;2024-02-16T08:12:04;2.50;;;0.77;;
65879;SDS011;52661;51.364;6.054;2024-02-16T08:14:32;2.75;;;0.60;;
65879;SDS011;52661;51.364;6.054;2024-02-16T08:16:58;6.38;;;1.00;;
65879;SDS011;52661;51.364;6.054;2024-02-16T08:19:23;4.95;;;0.73;;
65879;SDS011;52661;51.364;6.054;2024-02-16T08:21:58;2.78;;;0.60;;
65879;SDS011;52661;51.364;6.054;2024-02-16T08:24:23;3.13;;;0.98;;
65879;SDS011;52661;51.364;6.054;2024-02-16T08:26:49;1.80;;;0.75;;
65879;SDS011;52661;51.364;6.054;2024-02-16T08:29:14;2.37;;;0.80;;
65879;SDS011;52661;51.364;6.054;2024-02-16T08:31:39;2.50;;;0.70;;
65879;SDS011;52661;51.364;6.054;2024-02-16T08:34:04;5.03;;;0.77;;
65879;SDS011;52661;51.364;6.054;2024-02-16T08:36:32;3.10;;;0.52;;
65879;SDS011;52661;51.364;6.054;2024-02-16T08:38:58;2.88;;;0.85;;
65879;SDS011;52661;51.364;6.054;2024-02-16T08:41:24;3.38;;;0.35;;
65879;SDS011;52661;51.364;6.054;2024-02-16T08:43:49;5.40;;;1.08;;
65879;SDS011;52661;51.364;6.054;2024-02-16T08:46:15;2.75;;;0.68;;
65879;SDS011;52661;51.364;6.054;2024-02-16T08:48:41;2.53;;;0.77;;
65879;SDS011;52661;51.364;6.054;2024-02-16T08:51:06;0.85;;;0.35;;
65879;SDS011;52661;51.364;6.054;2024-02-16T08:53:31;2.40;;;0.93;;
65879;SDS011;52661;51.364;6.054;2024-02-16T08:55:57;1.63;;;0.57;;
65879;SDS011;52661;51.364;6.054;2024-02-16T08:58:22;0.87;;;0.20;;
65879;SDS011;52661;51.364;6.054;2024-02-16T09:00:47;2.10;;;0.47;;
65879;SDS011;52661;51.364;6.054;2024-02-16T09:03:14;3.72;;;0.73;;
65879;SDS011;52661;51.364;6.054;2024-02-16T09:05:41;1.95;;;0.57;;
65879;SDS011;52661;51.364;6.054;2024-02-16T09:08:08;3.17;;;0.95;;
65879;SDS011;52661;51.364;6.054;2024-02-16T09:10:34;2.78;;;0.80;;
65879;SDS011;52661;51.364;6.054;2024-02-16T09:12:59;3.95;;;0.93;;
65879;SDS011;52661;51.364;6.054;2024-02-16T09:15:25;1.88;;;0.65;;
65879;SDS011;52661;51.364;6.054;2024-02-16T09:17:50;1.38;;;0.65;;
65879;SDS011;52661;51.364;6.054;2024-02-16T09:20:16;2.80;;;1.20;;
65879;SDS011;52661;51.364;6.054;2024-02-16T09:22:47;2.72;;;0.88;;
65879;SDS011;52661;51.364;6.054;2024-02-16T09:25:12;4.22;;;0.82;;
65879;SDS011;52661;51.364;6.054;2024-02-16T09:27:39;4.10;;;0.93;;
65879;SDS011;52661;51.364;6.054;2024-02-16T09:30:06;0.90;;;0.50;;
65879;SDS011;52661;51.364;6.054;2024-02-16T09:32:31;3.17;;;0.93;;
65879;SDS011;52661;51.364;6.054;2024-02-16T09:34:57;1.85;;;0.60;;
65879;SDS011;52661;51.364;6.054;2024-02-16T09:37:22;3.50;;;0.87;;
65879;SDS011;52661;51.364;6.054;2024-02-16T09:39:48;2.65;;;0.73;;
65879;SDS011;52661;51.364;6.054;2024-02-16T09:42:13;2.83;;;0.50;;
65879;SDS011;52661;51.364;6.054;2024-02-16T09:44:39;5.35;;;0.73;;
65879;SDS011;52661;51.364;6.054;2024-02-16T09:47:06;3.28;;;1.05;;
65879;SDS011;52661;51.364;6.054;2024-02-16T09:49:36;7.90;;;1.02;;
65879;SDS011;52661;51.364;6.054;2024-02-16T09:52:02;3.00;;;1.20;;
65879;SDS011;52661;51.364;6.054;2024-02-16T09:54:34;3.28;;;0.55;;
65879;SDS011;52661;51.364;6.054;2024-02-16T09:56:59;4.65;;;0.88;;
65879;SDS011;52661;51.364;6.054;2024-02-16T09:59:24;3.10;;;1.25;;
65879;SDS011;52661;51.364;6.054;2024-02-16T10:01:58;2.35;;;0.85;;
65879;SDS011;52661;51.364;6.054;2024-02-16T10:04:25;2.42;;;0.85;;
65879;SDS011;52661;51.364;6.054;2024-02-16T10:06:50;2.77;;;0.97;;
65879;SDS011;52661;51.364;6.054;2024-02-16T10:09:25;2.33;;;0.73;;
65879;SDS011;52661;51.364;6.054;2024-02-16T10:11:54;2.55;;;0.68;;
65879;SDS011;52661;51.364;6.054;2024-02-16T10:14:19;4.47;;;1.05;;
65879;SDS011;52661;51.364;6.054;2024-02-16T10:16:45;2.83;;;0.73;;
65879;SDS011;52661;51.364;6.054;2024-02-16T10:19:13;4.50;;;1.25;;
65879;SDS011;52661;51.364;6.054;2024-02-16T10:21:39;5.50;;;1.30;;
65879;SDS011;52661;51.364;6.054;2024-02-16T10:24:07;2.70;;;1.43;;
65879;SDS011;52661;51.364;6.054;2024-02-16T10:26:35;1.92;;;0.88;;
65879;SDS011;52661;51.364;6.054;2024-02-16T10:29:04;1.90;;;0.50;;
65879;SDS011;52661;51.364;6.054;2024-02-16T10:31:31;2.28;;;0.90;;
65879;SDS011;52661;51.364;6.054;2024-02-16T10:33:59;3.97;;;1.10;;
65879;SDS011;52661;51.364;6.054;2024-02-16T10:36:31;2.25;;;0.88;;
65879;SDS011;52661;51.364;6.054;2024-02-16T10:39:01;3.80;;;1.00;;
65879;SDS011;52661;51.364;6.054;2024-02-16T10:41:29;5.50;;;1.33;;
65879;SDS011;52661;51.364;6.054;2024-02-16T10:43:59;2.65;;;1.40;;
65879;SDS011;52661;51.364;6.054;2024-02-16T10:46:26;3.70;;;1.17;;
65879;SDS011;52661;51.364;6.054;2024-02-16T10:48:52;2.53;;;1.33;;
65879;SDS011;52661;51.364;6.054;2024-02-16T10:51:19;1.80;;;1.25;;
65879;SDS011;52661;51.364;6.054;2024-02-16T10:54:06;6.75;;;0.98;;
65879;SDS011;52661;51.364;6.054;2024-02-16T10:56:33;3.63;;;1.15;;
65879;SDS011;52661;51.364;6.054;2024-02-16T10:59:04;4.50;;;1.27;;
65879;SDS011;52661;51.364;6.054;2024-02-16T11:01:39;1.98;;;0.70;;
65879;SDS011;52661;51.364;6.054;2024-02-16T11:04:07;2.70;;;0.93;;
65879;SDS011;52661;51.364;6.054;2024-02-16T11:09:27;1.42;;;0.98;;
65879;SDS011;52661;51.364;6.054;2024-02-16T11:12:00;6.03;;;1.40;;
65879;SDS011;52661;51.364;6.054;2024-02-16T11:14:34;3.30;;;1.33;;
65879;SDS011;52661;51.364;6.054;2024-02-16T11:17:10;3.85;;;1.55;;
65879;SDS011;52661;51.364;6.054;2024-02-16T11:19:36;4.68;;;1.35;;
65879;SDS011;52661;51.364;6.054;2024-02-16T11:22:03;6.45;;;1.55;;
65879;SDS011;52661;51.364;6.054;2024-02-16T11:24:35;3.33;;;1.60;;
65879;SDS011;52661;51.364;6.054;2024-02-16T11:27:04;1.65;;;0.77;;
65879;SDS011;52661;51.364;6.054;2024-02-16T11:29:37;2.47;;;1.60;;
65879;SDS011;52661;51.364;6.054;2024-02-16T11:32:04;2.47;;;0.85;;
65879;SDS011;52661;51.364;6.054;2024-02-16T11:34:30;4.38;;;1.90;;
65879;SDS011;52661;51.364;6.054;2024-02-16T11:36:57;3.03;;;0.68;;
65879;SDS011;52661;51.364;6.054;2024-02-16T11:39:24;6.43;;;1.38;;
65879;SDS011;52661;51.364;6.054;2024-02-16T11:42:01;5.93;;;0.70;;
65879;SDS011;52661;51.364;6.054;2024-02-16T11:47:01;3.97;;;1.40;;
65879;SDS011;52661;51.364;6.054;2024-02-16T11:49:31;2.38;;;0.73;;
65879;SDS011;52661;51.364;6.054;2024-02-16T11:51:56;3.65;;;1.27;;
65879;SDS011;52661;51.364;6.054;2024-02-16T11:54:24;3.20;;;1.13;;
65879;SDS011;52661;51.364;6.054;2024-02-16T11:56:50;3.95;;;1.23;;
65879;SDS011;52661;51.364;6.054;2024-02-16T11:59:17;3.08;;;1.20;;
65879;SDS011;52661;51.364;6.054;2024-02-16T12:04:20;2.85;;;0.77;;
65879;SDS011;52661;51.364;6.054;2024-02-16T12:06:46;4.32;;;0.77;;
65879;SDS011;52661;51.364;6.054;2024-02-16T12:09:15;3.92;;;1.25;;
65879;SDS011;52661;51.364;6.054;2024-02-16T12:11:41;4.32;;;1.38;;
65879;SDS011;52661;51.364;6.054;2024-02-16T12:14:07;5.22;;;0.85;;
65879;SDS011;52661;51.364;6.054;2024-02-16T12:16:32;3.78;;;1.25;;
65879;SDS011;52661;51.364;6.054;2024-02-16T12:19:06;9.05;;;2.15;;
65879;SDS011;52661;51.364;6.054;2024-02-16T12:21:33;5.95;;;1.23;;
65879;SDS011;52661;51.364;6.054;2024-02-16T12:23:58;3.38;;;1.30;;
65879;SDS011;52661;51.364;6.054;2024-02-16T12:26:24;2.00;;;1.00;;
65879;SDS011;52661;51.364;6.054;2024-02-16T12:28:49;5.90;;;1.17;;
65879;SDS011;52661;51.364;6.054;2024-02-16T12:31:18;7.80;;;1.45;;
65879;SDS011;52661;51.364;6.054;2024-02-16T12:33:45;4.88;;;1.38;;
65879;SDS011;52661;51.364;6.054;2024-02-16T12:36:10;6.73;;;2.10;;
65879;SDS011;52661;51.364;6.054;2024-02-16T12:38:35;2.83;;;1.33;;
65879;SDS011;52661;51.364;6.054;2024-02-16T12:41:01;7.07;;;1.80;;
65879;SDS011;52661;51.364;6.054;2024-02-16T12:43:26;8.15;;;2.38;;
65879;SDS011;52661;51.364;6.054;2024-02-16T12:45:51;6.37;;;1.93;;
65879;SDS011;52661;51.364;6.054;2024-02-16T12:48:17;3.60;;;1.20;;
65879;SDS011;52661;51.364;6.054;2024-02-16T12:50:42;4.40;;;1.67;;
65879;SDS011;52661;51.364;6.054;2024-02-16T12:53:08;4.35;;;1.90;;
65879;SDS011;52661;51.364;6.054;2024-02-16T12:55:34;7.10;;;1.73;;
65879;SDS011;52661;51.364;6.054;2024-02-16T12:58:01;6.53;;;2.13;;
65879;SDS011;52661;51.364;6.054;2024-02-16T13:00:26;4.35;;;1.58;;
65879;SDS011;52661;51.364;6.054;2024-02-16T13:02:51;5.43;;;1.63;;
65879;SDS011;52661;51.364;6.054;2024-02-16T13:05:17;3.70;;;1.55;;
65879;SDS011;52661;51.364;6.054;2024-02-16T13:07:42;4.03;;;1.20;;
65879;SDS011;52661;51.364;6.054;2024-02-16T13:10:08;4.17;;;1.63;;
65879;SDS011;52661;51.364;6.054;2024-02-16T13:12:34;8.60;;;2.72;;
65879;SDS011;52661;51.364;6.054;2024-02-16T13:14:59;7.55;;;2.45;;
65879;SDS011;52661;51.364;6.054;2024-02-16T13:17:25;7.22;;;2.42;;
65879;SDS011;52661;51.364;6.054;2024-02-16T13:19:53;6.93;;;2.00;;
65879;SDS011;52661;51.364;6.054;2024-02-16T13:22:18;6.73;;;2.00;;
65879;SDS011;52661;51.364;6.054;2024-02-16T13:24:44;8.63;;;2.17;;
65879;SDS011;52661;51.364;6.054;2024-02-16T13:27:10;5.10;;;2.08;;
65879;SDS011;52661;51.364;6.054;2024-02-16T13:29:35;4.50;;;1.75;;
65879;SDS011;52661;51.364;6.054;2024-02-16T13:32:01;3.40;;;1.60;;
65879;SDS011;52661;51.364;6.054;2024-02-16T13:34:26;4.40;;;1.65;;
65879;SDS011;52661;51.364;6.054;2024-02-16T13:36:52;4.82;;;1.77;;
65879;SDS011;52661;51.364;6.054;2024-02-16T13:39:18;4.93;;;1.75;;
65879;SDS011;52661;51.364;6.054;2024-02-16T13:41:44;4.07;;;1.50;;
65879;SDS011;52661;51.364;6.054;2024-02-16T13:44:12;5.18;;;2.15;;
65879;SDS011;52661;51.364;6.054;2024-02-16T13:46:37;4.20;;;1.50;;
65879;SDS011;52661;51.364;6.054;2024-02-16T13:49:03;3.87;;;1.73;;
65879;SDS011;52661;51.364;6.054;2024-02-16T13:51:28;4.82;;;1.70;;
65879;SDS011;52661;51.364;6.054;2024-02-16T13:53:53;3.67;;;1.47;;
65879;SDS011;52661;51.364;6.054;2024-02-16T13:56:19;4.13;;;1.43;;
65879;SDS011;52661;51.364;6.054;2024-02-16T13:58:44;3.50;;;1.88;;
65879;SDS011;52661;51.364;6.054;2024-02-16T14:03:37;4.83;;;1.53;;
65879;SDS011;52661;51.364;6.054;2024-02-16T14:06:02;5.70;;;1.63;;
65879;SDS011;52661;51.364;6.054;2024-02-16T14:10:55;5.03;;;2.10;;
65879;SDS011;52661;51.364;6.054;2024-02-16T14:13:21;4.30;;;1.88;;
65879;SDS011;52661;51.364;6.054;2024-02-16T14:15:49;4.03;;;1.73;;
65879;SDS011;52661;51.364;6.054;2024-02-16T14:18:15;7.38;;;1.88;;
65879;SDS011;52661;51.364;6.054;2024-02-16T14:20:40;4.43;;;1.65;;
65879;SDS011;52661;51.364;6.054;2024-02-16T14:23:06;4.88;;;2.35;;
65879;SDS011;52661;51.364;6.054;2024-02-16T14:25:33;4.55;;;2.03;;
65879;SDS011;52661;51.364;6.054;2024-02-16T14:27:58;3.30;;;1.67;;
65879;SDS011;52661;51.364;6.054;2024-02-16T14:30:23;3.33;;;1.57;;
65879;SDS011;52661;51.364;6.054;2024-02-16T14:32:49;3.80;;;1.67;;
65879;SDS011;52661;51.364;6.054;2024-02-16T14:35:14;4.77;;;2.03;;
65879;SDS011;52661;51.364;6.054;2024-02-16T14:37:39;5.88;;;1.95;;
65879;SDS011;52661;51.364;6.054;2024-02-16T14:40:05;5.00;;;2.38;;
65879;SDS011;52661;51.364;6.054;2024-02-16T14:42:35;4.55;;;2.05;;
65879;SDS011;52661;51.364;6.054;2024-02-16T14:45:01;3.47;;;1.60;;
65879;SDS011;52661;51.364;6.054;2024-02-16T14:47:27;7.32;;;2.17;;
65879;SDS011;52661;51.364;6.054;2024-02-16T14:49:53;3.95;;;1.85;;
65879;SDS011;52661;51.364;6.054;2024-02-16T14:52:18;4.40;;;2.23;;
65879;SDS011;52661;51.364;6.054;2024-02-16T14:54:44;3.67;;;1.50;;